createdAt,value
2022-11-16T00:02:14.787Z,34.85
2022-11-16T00:04:42.026Z,25.33
2022-11-16T00:07:09.133Z,25.08
2022-11-16T00:09:36.039Z,24.45
2022-11-16T00:12:06.142Z,28.70
2022-11-16T00:14:35.001Z,24.73
2022-11-16T00:17:02.258Z,27.67
2022-11-16T00:19:29.613Z,26.60
2022-11-16T00:21:56.238Z,25.85
2022-11-16T00:24:23.791Z,25.02
2022-11-16T00:26:51.170Z,26.42
2022-11-16T00:29:22.081Z,26.50
2022-11-16T00:31:49.828Z,27.35
2022-11-16T00:34:17.310Z,26.70
2022-11-16T00:36:44.604Z,25.73
2022-11-16T00:39:12.877Z,25.65
2022-11-16T00:41:40.064Z,25.48
2022-11-16T00:44:07.002Z,25.98
2022-11-16T00:46:33.626Z,27.90
2022-11-16T00:49:01.625Z,28.73
2022-11-16T00:51:31.729Z,24.05
2022-11-16T00:53:58.531Z,27.70
2022-11-16T00:56:25.330Z,27.10
2022-11-16T00:58:52.015Z,28.35
2022-11-16T01:01:19.048Z,26.85
2022-11-16T01:03:46.050Z,29.33
2022-11-16T01:06:14.383Z,27.10
2022-11-16T01:08:42.336Z,27.92
2022-11-16T01:11:28.618Z,27.63
2022-11-16T01:13:55.652Z,30.67
2022-11-16T01:16:23.368Z,29.80
2022-11-16T01:18:54.949Z,31.02
2022-11-16T01:21:23.011Z,28.85
2022-11-16T01:23:50.412Z,27.10
2022-11-16T01:26:17.391Z,29.08
2022-11-16T01:28:44.473Z,30.20
2022-11-16T01:31:12.557Z,29.30
2022-11-16T01:33:40.648Z,28.05
2022-11-16T01:36:14.816Z,28.50
2022-11-16T01:38:43.769Z,29.13
2022-11-16T01:41:16.401Z,30.27
2022-11-16T01:44:05.738Z,27.67
2022-11-16T01:46:38.607Z,30.23
2022-11-16T01:49:20.421Z,32.42
2022-11-16T01:51:53.441Z,30.48
2022-11-16T01:54:21.048Z,35.40
2022-11-16T01:57:02.955Z,32.95
2022-11-16T01:59:39.155Z,31.52
2022-11-16T02:02:09.481Z,35.80
2022-11-16T02:04:36.273Z,35.25
2022-11-16T02:08:18.039Z,34.78
2022-11-16T02:11:24.807Z,35.95
2022-11-16T02:14:27.127Z,37.60
2022-11-16T02:17:09.724Z,35.15
2022-11-16T02:20:03.378Z,38.25
2022-11-16T02:22:44.322Z,37.60
2022-11-16T02:25:23.218Z,37.17
2022-11-16T02:28:00.440Z,41.55
2022-11-16T02:30:27.111Z,41.10
2022-11-16T02:33:18.370Z,38.15
2022-11-16T02:35:50.404Z,37.17
2022-11-16T02:38:27.902Z,40.50
2022-11-16T02:41:01.702Z,39.75
2022-11-16T02:43:57.451Z,40.40
2022-11-16T02:46:36.073Z,38.40
2022-11-16T02:49:11.383Z,40.17
2022-11-16T02:51:40.798Z,37.10
2022-11-16T02:54:08.588Z,37.15
2022-11-16T02:57:03.638Z,37.70
2022-11-16T02:59:42.750Z,38.17
2022-11-16T03:02:37.302Z,35.67
2022-11-16T03:05:17.144Z,39.17
2022-11-16T03:08:29.441Z,34.60
2022-11-16T03:11:21.649Z,35.90
2022-11-16T03:13:49.879Z,35.38
2022-11-16T03:16:25.267Z,39.35
2022-11-16T03:18:55.548Z,35.38
2022-11-16T03:21:44.392Z,31.67
2022-11-16T03:24:13.470Z,32.92
2022-11-16T03:27:05.498Z,33.67
2022-11-16T03:29:39.024Z,36.25
2022-11-16T03:32:19.097Z,33.78
2022-11-16T03:34:56.305Z,32.95
2022-11-16T03:37:25.356Z,34.63
2022-11-16T03:39:54.681Z,36.70
2022-11-16T03:42:24.727Z,36.80
2022-11-16T03:44:52.448Z,36.58
2022-11-16T03:47:19.076Z,33.53
2022-11-16T03:49:46.656Z,34.47
2022-11-16T03:52:17.331Z,36.08
2022-11-16T03:54:44.351Z,35.05
2022-11-16T03:57:18.629Z,35.80
2022-11-16T03:59:51.162Z,32.17
2022-11-16T04:02:17.811Z,39.20
2022-11-16T04:05:03.408Z,35.28
2022-11-16T04:07:48.675Z,35.08
2022-11-16T04:10:34.127Z,34.13
2022-11-16T04:13:40.490Z,37.25
2022-11-16T04:16:27.816Z,38.03
2022-11-16T04:19:13.100Z,37.67
2022-11-16T04:22:03.555Z,36.17
2022-11-16T04:24:38.197Z,34.28
2022-11-16T04:27:27.804Z,37.45
2022-11-16T04:29:56.631Z,38.97
2022-11-16T04:32:42.597Z,36.40
2022-11-16T04:35:27.743Z,38.80
2022-11-16T04:37:58.503Z,33.63
2022-11-16T04:40:32.073Z,33.58
2022-11-16T04:43:01.405Z,31.88
2022-11-16T04:45:51.168Z,34.17
2022-11-16T04:48:20.975Z,33.92
2022-11-16T04:50:51.037Z,40.63
2022-11-16T04:53:18.111Z,35.58
2022-11-16T04:55:51.068Z,35.60
2022-11-16T04:58:19.988Z,34.47
2022-11-16T05:00:47.856Z,36.80
2022-11-16T05:03:14.592Z,29.98
2022-11-16T05:05:42.038Z,35.88
2022-11-16T05:08:09.295Z,30.90
2022-11-16T05:10:37.366Z,36.75
2022-11-16T05:13:04.124Z,29.08
2022-11-16T05:15:30.831Z,32.63
2022-11-16T05:17:59.096Z,34.25
2022-11-16T05:20:44.855Z,35.80
2022-11-16T05:23:32.287Z,35.95
2022-11-16T05:26:04.434Z,32.13
2022-11-16T05:28:31.202Z,31.27
2022-11-16T05:30:58.089Z,32.22
2022-11-16T05:33:26.975Z,33.50
2022-11-16T05:35:53.752Z,32.03
2022-11-16T05:38:21.311Z,34.88
2022-11-16T05:40:51.834Z,34.50
2022-11-16T05:43:18.446Z,32.78
2022-11-16T05:48:33.101Z,36.30
2022-11-16T05:51:00.507Z,37.63
2022-11-16T05:53:30.534Z,33.67
2022-11-16T05:55:58.597Z,34.50
2022-11-16T05:58:25.212Z,37.08
2022-11-16T06:00:52.274Z,31.55
2022-11-16T06:03:19.836Z,32.28
2022-11-16T06:05:46.734Z,30.08
2022-11-16T06:08:16.193Z,35.58
2022-11-16T06:10:42.822Z,32.92
2022-11-16T06:13:09.543Z,31.33
2022-11-16T06:15:39.630Z,32.97
2022-11-16T06:18:08.700Z,32.08
2022-11-16T06:20:38.388Z,29.80
2022-11-16T06:23:06.042Z,31.90
2022-11-16T06:25:33.444Z,30.58
2022-11-16T06:28:05.234Z,31.45
2022-11-16T06:30:34.739Z,29.48
2022-11-16T06:33:02.786Z,31.92
2022-11-16T06:35:29.536Z,36.13
2022-11-16T06:37:58.207Z,33.08
2022-11-16T06:40:25.778Z,35.00
2022-11-16T06:42:52.631Z,39.22
2022-11-16T06:45:19.499Z,37.03
2022-11-16T06:47:50.597Z,37.97
2022-11-16T06:50:19.294Z,35.00
2022-11-16T06:52:47.592Z,34.85
2022-11-16T06:55:16.324Z,36.70
2022-11-16T06:57:43.966Z,34.97
2022-11-16T07:00:11.165Z,34.53
2022-11-16T07:02:38.778Z,36.70
2022-11-16T07:05:08.106Z,34.13
2022-11-16T07:07:34.995Z,33.83
2022-11-16T07:10:02.469Z,33.05
2022-11-16T07:12:30.714Z,31.35
2022-11-16T07:15:01.323Z,33.80
2022-11-16T07:17:30.573Z,35.67
2022-11-16T07:19:57.870Z,35.45
2022-11-16T07:22:24.557Z,34.70
2022-11-16T07:24:51.960Z,35.20
2022-11-16T07:27:20.313Z,36.40
2022-11-16T07:29:49.979Z,38.55
2022-11-16T07:32:35.780Z,38.83
2022-11-16T07:35:13.801Z,40.65
2022-11-16T07:37:40.423Z,35.53
2022-11-16T07:40:08.752Z,33.35
2022-11-16T07:42:36.769Z,38.67
2022-11-16T07:45:22.007Z,36.80
2022-11-16T07:47:53.743Z,37.92
2022-11-16T07:50:43.496Z,35.83
2022-11-16T07:53:10.708Z,38.58
2022-11-16T07:55:39.074Z,40.97
2022-11-16T07:58:06.103Z,40.03
2022-11-16T08:00:32.785Z,36.15
2022-11-16T08:03:08.386Z,38.17
2022-11-16T08:05:36.120Z,41.63
2022-11-16T08:08:02.885Z,39.60
2022-11-16T08:10:31.610Z,37.28
2022-11-16T08:12:59.439Z,36.67
2022-11-16T08:15:26.634Z,33.35
2022-11-16T08:17:53.311Z,38.45
2022-11-16T08:20:20.186Z,40.08
2022-11-16T08:22:49.771Z,36.25
2022-11-16T08:25:16.507Z,37.55
2022-11-16T08:27:43.942Z,38.15
2022-11-16T08:30:11.845Z,38.90
2022-11-16T08:32:39.340Z,35.50
2022-11-16T08:35:06.649Z,39.95
2022-11-16T08:37:34.021Z,41.33
2022-11-16T08:40:00.775Z,40.33
2022-11-16T08:42:28.035Z,38.30
2022-11-16T08:44:54.693Z,38.72
2022-11-16T08:47:21.404Z,38.08
2022-11-16T08:49:53.641Z,39.95
2022-11-16T08:52:21.857Z,43.58
2022-11-16T08:54:50.419Z,42.30
2022-11-16T08:57:17.410Z,39.53
2022-11-16T08:59:46.889Z,48.90
2022-11-16T09:02:14.166Z,44.25
2022-11-16T09:04:40.869Z,43.40
2022-11-16T09:07:07.505Z,42.05
2022-11-16T09:09:34.313Z,45.85
2022-11-16T09:12:00.990Z,47.38
2022-11-16T09:14:29.010Z,46.42
2022-11-16T09:16:55.671Z,38.78
2022-11-16T09:19:22.558Z,49.03
2022-11-16T09:21:50.416Z,45.90
2022-11-16T09:24:17.281Z,49.33
2022-11-16T09:26:44.009Z,45.78
2022-11-16T09:29:14.937Z,49.75
2022-11-16T09:31:42.074Z,49.05
2022-11-16T09:34:08.728Z,47.70
2022-11-16T09:36:35.432Z,46.88
2022-11-16T09:39:29.523Z,48.10
2022-11-16T09:42:02.091Z,48.45
2022-11-16T09:44:58.743Z,45.00
2022-11-16T09:47:49.182Z,50.33
2022-11-16T09:50:22.709Z,48.70
2022-11-16T09:52:55.511Z,50.35
2022-11-16T09:55:32.134Z,52.83
2022-11-16T09:58:02.103Z,49.50
2022-11-16T10:00:30.625Z,50.33
2022-11-16T10:03:11.007Z,54.83
2022-11-16T10:05:48.601Z,52.83
2022-11-16T10:08:23.163Z,47.70
2022-11-16T10:11:05.434Z,47.13
2022-11-16T10:13:57.054Z,49.75
2022-11-16T10:16:49.073Z,52.70
2022-11-16T10:19:30.770Z,53.75
2022-11-16T10:22:18.201Z,51.72
2022-11-16T10:24:57.454Z,53.30
2022-11-16T10:27:38.203Z,52.17
2022-11-16T10:30:19.984Z,55.08
2022-11-16T10:33:02.832Z,55.35
2022-11-16T10:35:37.258Z,50.65
2022-11-16T10:38:14.550Z,53.92
2022-11-16T10:40:41.522Z,57.28
2022-11-16T10:43:15.071Z,58.83
2022-11-16T10:46:09.214Z,55.72
2022-11-16T10:49:27.190Z,54.88
2022-11-16T10:51:53.981Z,56.95
2022-11-16T10:54:20.590Z,54.65
2022-11-16T10:56:49.670Z,59.13
2022-11-16T10:59:19.176Z,61.28
2022-11-16T11:01:51.055Z,54.45
2022-11-16T11:04:26.270Z,55.38
2022-11-16T11:07:01.678Z,59.22
2022-11-16T11:09:34.311Z,55.53
2022-11-16T11:12:34.246Z,62.78
2022-11-16T11:15:25.876Z,59.63
2022-11-16T11:18:11.697Z,55.92
2022-11-16T11:20:44.864Z,58.58
2022-11-16T11:23:15.865Z,55.70
2022-11-16T11:25:49.745Z,54.35
2022-11-16T11:28:19.454Z,55.10
2022-11-16T11:31:04.114Z,50.67
2022-11-16T11:33:48.548Z,56.53
2022-11-16T11:36:27.084Z,54.40
2022-11-16T11:39:07.838Z,54.92
2022-11-16T11:41:38.927Z,54.75
2022-11-16T11:44:31.764Z,53.10
2022-11-16T11:50:11.078Z,51.30
2022-11-16T11:52:42.582Z,56.80
2022-11-16T11:55:17.768Z,51.50
2022-11-16T11:57:47.791Z,52.35
2022-11-16T12:00:15.619Z,55.25
2022-11-16T12:03:06.377Z,57.40
2022-11-16T12:06:06.374Z,55.90
2022-11-16T12:08:51.280Z,57.78
2022-11-16T12:11:36.316Z,59.75
2022-11-16T12:14:17.817Z,59.95
2022-11-16T12:16:53.176Z,60.50
2022-11-16T12:19:19.726Z,61.03
2022-11-16T12:21:55.258Z,54.92
2022-11-16T12:24:28.098Z,66.50
2022-11-16T12:27:00.795Z,61.25
2022-11-16T12:29:27.431Z,56.10
2022-11-16T12:32:09.176Z,54.40
2022-11-16T12:34:54.779Z,58.38
2022-11-16T12:37:37.316Z,62.13
2022-11-16T12:40:10.017Z,54.15
2022-11-16T12:42:45.735Z,56.03
2022-11-16T12:45:32.546Z,54.78
2022-11-16T12:48:18.147Z,57.53
2022-11-16T12:51:32.192Z,59.97
2022-11-16T12:54:19.968Z,57.38
2022-11-16T12:56:49.057Z,59.10
2022-11-16T13:00:14.307Z,60.00
2022-11-16T13:03:04.183Z,60.22
2022-11-16T13:05:42.712Z,63.90
2022-11-16T13:08:21.364Z,58.30
2022-11-16T13:10:50.555Z,60.03
2022-11-16T13:13:51.357Z,53.72
2022-11-16T13:16:17.357Z,54.05
2022-11-16T13:18:44.766Z,49.85
2022-11-16T13:21:37.642Z,47.80
2022-11-16T13:24:16.623Z,52.72
2022-11-16T13:26:55.898Z,57.67
2022-11-16T13:29:30.301Z,50.55
2022-11-16T13:32:00.440Z,51.28
2022-11-16T13:34:37.576Z,49.17
2022-11-16T13:37:39.721Z,48.88
2022-11-16T13:40:06.343Z,44.30
2022-11-16T13:42:57.422Z,46.20
2022-11-16T13:45:26.210Z,49.05
2022-11-16T13:47:55.582Z,48.33
2022-11-16T13:50:37.216Z,46.25
2022-11-16T13:56:05.195Z,47.38
2022-11-16T13:58:33.876Z,46.53
2022-11-16T14:01:10.688Z,50.05
2022-11-16T14:03:42.689Z,49.20
2022-11-16T14:06:24.626Z,50.10
2022-11-16T14:08:55.326Z,48.80
2022-11-16T14:11:38.165Z,51.47
2022-11-16T14:14:09.627Z,52.05
2022-11-16T14:16:50.735Z,51.35
2022-11-16T14:19:49.097Z,49.03
2022-11-16T14:22:41.766Z,48.70
2022-11-16T14:25:37.563Z,43.20
2022-11-16T14:28:38.785Z,42.65
2022-11-16T14:31:27.605Z,44.13
2022-11-16T14:33:59.938Z,41.42
2022-11-16T14:36:41.665Z,41.28
2022-11-16T14:39:37.437Z,43.13
2022-11-16T14:42:17.706Z,44.25
2022-11-16T14:44:44.770Z,42.70
2022-11-16T14:47:34.059Z,39.20
2022-11-16T14:50:00.727Z,41.42
2022-11-16T14:52:34.450Z,40.05
2022-11-16T14:55:07.119Z,41.92
2022-11-16T14:57:34.157Z,36.08
2022-11-16T15:00:18.926Z,41.78
2022-11-16T15:02:55.290Z,43.55
2022-11-16T15:05:29.592Z,39.38
2022-11-16T15:07:59.404Z,44.45
2022-11-16T15:10:28.582Z,42.03
2022-11-16T15:12:56.958Z,44.90
2022-11-16T15:15:31.357Z,45.67
2022-11-16T15:18:03.935Z,40.22
2022-11-16T15:20:36.725Z,39.08
2022-11-16T15:23:12.277Z,40.03
2022-11-16T15:25:56.636Z,43.00
2022-11-16T15:28:30.231Z,42.58
2022-11-16T15:31:02.388Z,31.73
2022-11-16T15:33:36.368Z,31.45
2022-11-16T15:36:21.824Z,31.77
2022-11-16T15:38:50.446Z,28.63
2022-11-16T15:41:18.465Z,29.17
2022-11-16T15:44:12.525Z,27.42
2022-11-16T15:46:38.529Z,23.98
2022-11-16T15:49:30.233Z,24.67
2022-11-16T15:52:01.003Z,24.83
2022-11-16T15:54:28.876Z,21.63
2022-11-16T15:56:58.532Z,20.70
2022-11-16T15:59:29.906Z,17.15
2022-11-16T16:01:56.809Z,16.58
2022-11-16T16:04:25.597Z,19.67
2022-11-16T16:06:57.221Z,19.20
2022-11-16T16:09:36.875Z,15.63
2022-11-16T16:12:15.779Z,15.40
2022-11-16T16:14:42.674Z,18.40
2022-11-16T16:17:11.627Z,18.42
2022-11-16T16:19:40.910Z,15.27
2022-11-16T16:22:15.433Z,16.75
2022-11-16T16:24:45.377Z,18.80
2022-11-16T16:27:17.908Z,16.35
2022-11-16T16:29:46.753Z,15.90
2022-11-16T16:32:25.223Z,15.27
2022-11-16T16:34:53.915Z,14.30
2022-11-16T16:37:20.688Z,15.02
2022-11-16T16:39:47.315Z,17.65
2022-11-16T16:42:16.331Z,16.00
2022-11-16T16:44:44.254Z,14.82
2022-11-16T16:47:11.184Z,14.75
2022-11-16T16:49:38.090Z,16.63
2022-11-16T16:52:05.957Z,14.43
2022-11-16T16:54:32.957Z,17.90
2022-11-16T16:57:01.413Z,15.82
2022-11-16T16:59:29.934Z,16.30
2022-11-16T17:01:57.829Z,15.27
2022-11-16T17:04:24.966Z,16.35
2022-11-16T17:06:52.922Z,15.32
2022-11-16T17:09:20.064Z,14.88
2022-11-16T17:11:47.569Z,17.52
2022-11-16T17:14:14.307Z,15.68
2022-11-16T17:16:41.048Z,19.88
2022-11-16T17:19:07.683Z,16.70
2022-11-16T17:21:34.252Z,14.60
2022-11-16T17:24:01.036Z,17.17
2022-11-16T17:26:29.520Z,16.88
2022-11-16T17:28:57.652Z,15.77
2022-11-16T17:31:25.843Z,17.48
2022-11-16T17:33:52.779Z,18.77
2022-11-16T17:36:19.892Z,16.75
2022-11-16T17:38:46.783Z,16.45
2022-11-16T17:41:18.506Z,16.52
2022-11-16T17:43:46.408Z,17.55
2022-11-16T17:46:15.861Z,16.50
2022-11-16T17:48:44.638Z,13.27
2022-11-16T17:51:13.422Z,14.48
2022-11-16T17:53:40.879Z,14.73
2022-11-16T17:56:07.961Z,14.10
2022-11-16T17:58:34.784Z,15.57
2022-11-16T18:01:01.518Z,15.88
2022-11-16T18:03:31.228Z,17.00
2022-11-16T18:06:06.075Z,15.48
2022-11-16T18:08:33.471Z,17.70
2022-11-16T18:11:11.164Z,16.58
2022-11-16T18:13:38.181Z,16.63
2022-11-16T18:16:17.405Z,16.05
2022-11-16T18:18:46.007Z,16.88
2022-11-16T18:21:20.032Z,14.50
2022-11-16T18:23:47.520Z,15.65
2022-11-16T18:26:17.789Z,12.57
2022-11-16T18:28:45.334Z,14.00
2022-11-16T18:31:15.653Z,14.30
2022-11-16T18:33:42.888Z,14.68
2022-11-16T18:36:10.803Z,21.70
2022-11-16T18:38:37.709Z,21.55
2022-11-16T18:41:13.456Z,15.75
2022-11-16T18:43:40.463Z,13.60
2022-11-16T18:46:07.841Z,14.02
2022-11-16T18:48:34.514Z,17.65
2022-11-16T18:51:03.214Z,18.98
2022-11-16T18:53:31.237Z,16.17
2022-11-16T18:55:58.510Z,18.42
2022-11-16T19:01:16.101Z,16.00
2022-11-16T19:03:43.235Z,13.15
2022-11-16T19:06:10.888Z,12.07
2022-11-16T19:08:39.283Z,14.07
2022-11-16T19:11:11.955Z,13.73
2022-11-16T19:13:43.099Z,16.25
2022-11-16T19:16:11.983Z,13.25
2022-11-16T19:18:38.743Z,14.88
2022-11-16T19:21:07.176Z,14.70
2022-11-16T19:23:42.816Z,15.85
2022-11-16T19:26:12.176Z,13.43
2022-11-16T19:28:43.333Z,11.82
2022-11-16T19:31:12.524Z,15.23
2022-11-16T19:33:39.913Z,14.55
2022-11-16T19:36:12.187Z,11.00
2022-11-16T19:38:39.395Z,13.63
2022-11-16T19:41:07.771Z,13.45
2022-11-16T19:43:34.745Z,10.88
2022-11-16T19:46:06.257Z,10.48
2022-11-16T19:48:33.276Z,12.95
2022-11-16T19:51:06.420Z,10.07
2022-11-16T19:53:33.775Z,12.80
2022-11-16T19:56:00.809Z,10.70
2022-11-16T19:58:27.938Z,13.30
2022-11-16T20:01:07.467Z,8.65
2022-11-16T20:03:34.903Z,9.45
2022-11-16T20:06:09.027Z,12.95
2022-11-16T20:08:36.995Z,8.20
2022-11-16T20:11:15.555Z,9.77
2022-11-16T20:13:42.659Z,9.75
2022-11-16T20:16:11.379Z,8.05
2022-11-16T20:18:39.912Z,9.38
2022-11-16T20:21:07.651Z,7.38
2022-11-16T20:23:35.639Z,6.30
2022-11-16T20:26:10.358Z,7.38
2022-11-16T20:28:39.028Z,8.85
2022-11-16T20:31:11.742Z,6.57
2022-11-16T20:33:38.675Z,5.82
2022-11-16T20:36:08.100Z,7.15
2022-11-16T20:38:36.519Z,8.18
2022-11-16T20:41:13.895Z,6.88
2022-11-16T20:43:42.182Z,6.55
2022-11-16T20:46:10.610Z,9.45
2022-11-16T20:48:38.170Z,7.18
2022-11-16T20:51:05.452Z,7.97
2022-11-16T20:53:33.261Z,8.02
2022-11-16T20:56:03.762Z,7.10
2022-11-16T20:58:31.321Z,8.05
2022-11-16T21:01:05.742Z,7.07
2022-11-16T21:03:33.155Z,8.30
2022-11-16T21:06:00.141Z,6.78
2022-11-16T21:08:27.341Z,7.93
2022-11-16T21:10:54.230Z,6.75
2022-11-16T21:13:40.179Z,7.10
2022-11-16T21:16:11.460Z,8.95
2022-11-16T21:18:39.531Z,7.53
2022-11-16T21:21:13.181Z,6.97
2022-11-16T21:23:43.135Z,7.70
2022-11-16T21:26:15.130Z,6.75
2022-11-16T21:28:44.730Z,6.45
2022-11-16T21:31:17.897Z,6.90
2022-11-16T21:33:45.310Z,7.03
2022-11-16T21:36:14.748Z,5.60
2022-11-16T21:38:41.904Z,6.93
2022-11-16T21:41:10.233Z,5.63
2022-11-16T21:43:37.777Z,6.60
2022-11-16T21:46:10.827Z,6.45
2022-11-16T21:48:37.962Z,7.90
2022-11-16T21:51:07.740Z,5.78
2022-11-16T21:53:35.384Z,5.05
2022-11-16T21:56:03.453Z,5.88
2022-11-16T21:58:30.157Z,4.65
2022-11-16T22:00:58.595Z,7.07
2022-11-16T22:03:27.330Z,5.25
2022-11-16T22:06:17.677Z,5.35
2022-11-16T22:08:45.189Z,4.65
2022-11-16T22:11:12.285Z,8.35
2022-11-16T22:13:39.770Z,4.03
2022-11-16T22:16:08.474Z,5.50
2022-11-16T22:18:35.458Z,4.97
2022-11-16T22:21:02.986Z,6.88
2022-11-16T22:23:30.558Z,4.40
2022-11-16T22:26:18.584Z,4.53
2022-11-16T22:28:45.194Z,4.80
2022-11-16T22:31:13.549Z,4.85
2022-11-16T22:33:40.213Z,5.78
2022-11-16T22:36:10.227Z,3.67
2022-11-16T22:38:37.486Z,3.60
2022-11-16T22:41:04.315Z,3.63
2022-11-16T22:43:32.300Z,5.05
2022-11-16T22:46:04.974Z,3.70
2022-11-16T22:48:37.316Z,3.00
2022-11-16T22:51:22.800Z,2.85
2022-11-16T22:54:00.485Z,3.30
2022-11-16T22:56:28.658Z,4.80
2022-11-16T22:58:55.779Z,4.35
2022-11-16T23:01:23.198Z,2.88
2022-11-16T23:03:50.128Z,4.05
2022-11-16T23:06:17.576Z,3.22
2022-11-16T23:08:44.465Z,3.75
2022-11-16T23:11:32.226Z,2.88
2022-11-16T23:14:18.628Z,4.10
2022-11-16T23:16:45.791Z,3.78
2022-11-16T23:19:33.027Z,3.20
2022-11-16T23:22:18.736Z,2.40
2022-11-16T23:25:04.437Z,3.17
2022-11-16T23:27:52.298Z,3.38
2022-11-16T23:30:18.968Z,4.43
2022-11-16T23:32:45.681Z,3.25
2022-11-16T23:35:13.138Z,2.97
2022-11-16T23:38:15.349Z,4.13
2022-11-16T23:40:42.022Z,4.57
2022-11-16T23:43:29.087Z,2.80
2022-11-16T23:45:55.833Z,3.00
2022-11-16T23:48:22.521Z,2.88
2022-11-16T23:50:49.126Z,3.45
2022-11-16T23:53:15.711Z,4.13
2022-11-16T23:55:42.338Z,3.35
2022-11-16T23:58:14.546Z,3.50
